Time;durP1;ratioP1;P1;durP2;ratioP2;P2;SDS_P1;SDS_P2;PMS_P1;PMS_P2;Temp;Humidity;BMP_temperature;BMP_pressure;BME280_temperature;BME280_humidity;BME280_pressure;Samples;Min_cycle;Max_cycle;Signal;HPM_P1;HPM_P2
2022/05/06 00:01:18;;;;;;;1.92;1.65;;;14.10;99.90;;;;;;1951228;73;21163;-76
2022/05/06 00:04:09;;;;;;;2.08;1.52;;;14.00;99.90;;;;;;1927820;73;21099;-76
2022/05/06 00:07:01;;;;;;;1.75;1.50;;;13.90;99.90;;;;;;1917790;75;21055;-77
2022/05/06 00:09:52;;;;;;;3.95;1.90;;;13.90;99.90;;;;;;1917696;75;21055;-77
2022/05/06 00:12:43;;;;;;;2.35;2.05;;;14.00;99.90;;;;;;1939451;73;21098;-77
2022/05/06 00:15:35;;;;;;;2.00;1.65;;;14.00;99.90;;;;;;1934200;73;21156;-76
2022/05/06 00:18:27;;;;;;;4.72;1.35;;;14.00;99.90;;;;;;1917675;75;21168;-79
2022/05/06 00:21:18;;;;;;;2.62;1.60;;;14.00;99.90;;;;;;1922542;73;21149;-78
2022/05/06 00:24:11;;;;;;;2.60;1.80;;;13.90;99.90;;;;;;1928552;73;21127;-79
2022/05/06 00:27:02;;;;;;;2.12;1.42;;;13.90;99.90;;;;;;1917719;75;21135;-78
2022/05/06 00:32:33;;;;;;;1.72;1.52;;;14.00;99.90;;;;;;1953473;72;22599;-76
2022/05/06 00:35:43;;;;;;;2.85;1.40;;;14.30;99.90;;;;;;1887221;75;21112;-77
2022/05/06 00:41:34;;;;;;;2.20;1.20;;;14.10;99.90;;;;;;1959070;72;22095;-76
2022/05/06 00:44:44;;;;;;;1.75;1.32;;;14.00;99.90;;;;;;1917742;75;21031;-77
2022/05/06 00:47:55;;;;;;;1.47;1.37;;;14.10;99.90;;;;;;1932940;73;21553;-76
2022/05/06 00:50:46;;;;;;;2.10;1.30;;;14.10;99.90;;;;;;1919002;73;21109;-76
2022/05/06 00:53:57;;;;;;;2.72;1.57;;;14.20;99.90;;;;;;1915384;75;21153;-76
2022/05/06 00:56:49;;;;;;;1.35;1.25;;;14.10;99.90;;;;;;1938227;73;21050;-76
2022/05/06 01:02:51;;;;;;;1.47;1.30;;;14.10;99.90;;;;;;1917756;75;21212;-76
2022/05/06 01:05:43;;;;;;;1.95;1.25;;;14.20;99.90;;;;;;1917651;75;21132;-76
2022/05/06 01:08:36;;;;;;;1.60;1.20;;;14.10;99.90;;;;;;1917676;75;21173;-76
2022/05/06 01:11:28;;;;;;;2.72;1.27;;;14.20;99.90;;;;;;1917659;75;21140;-77
2022/05/06 01:14:34;;;;;;;1.85;1.20;;;14.20;99.90;;;;;;1931447;73;21142;-76
2022/05/06 01:20:11;;;;;;;1.98;1.10;;;14.10;99.90;;;;;;1947542;72;22261;-76
2022/05/06 01:23:23;;;;;;;3.80;1.50;;;14.10;99.90;;;;;;1884624;76;21094;-78
2022/05/06 01:27:00;;;;;;;1.37;1.07;;;14.20;99.90;;;;;;1884570;76;21393;-77
2022/05/06 01:29:54;;;;;;;1.57;1.40;;;14.20;99.90;;;;;;1884801;76;21063;-77
2022/05/06 01:33:07;;;;;;;1.82;1.35;;;14.20;99.90;;;;;;1896550;75;21107;-78
2022/05/06 01:35:59;;;;;;;1.55;1.40;;;14.20;99.90;;;;;;1895404;75;21143;-77
2022/05/06 01:41:33;;;;;;;1.47;1.37;;;14.10;99.90;;;;;;1952589;72;22286;-76
2022/05/06 01:47:28;;;;;;;2.30;1.32;;;14.10;99.90;;;;;;1950017;72;22249;-76
2022/05/06 01:50:41;;;;;;;2.10;1.02;;;14.20;99.90;;;;;;1915130;75;21099;-76
2022/05/06 01:53:51;;;;;;;1.62;1.22;;;14.10;99.90;;;;;;1908289;75;21170;-77
2022/05/06 01:56:45;;;;;;;1.70;1.30;;;14.00;99.90;;;;;;1895503;75;21062;-76
2022/05/06 01:59:56;;;;;;;1.60;1.27;;;14.20;99.90;;;;;;1907048;75;21106;-76
2022/05/06 02:02:49;;;;;;;3.30;2.17;;;14.10;99.90;;;;;;1903458;75;21087;-76
2022/05/06 02:05:43;;;;;;;2.25;2.02;;;14.10;99.90;;;;;;1901692;75;21132;-77
2022/05/06 02:11:13;;;;;;;1.92;1.52;;;13.90;99.90;;;;;;1953865;72;22083;-76
2022/05/06 02:14:23;;;;;;;1.70;1.50;;;14.00;99.90;;;;;;1912548;74;21104;-78
2022/05/06 02:17:47;;;;;;;2.22;1.65;;;13.90;99.90;;;;;;1884777;75;21068;-76
2022/05/06 02:20:58;;;;;;;1.75;1.45;;;14.00;99.90;;;;;;1906977;75;21153;-76
2022/05/06 02:24:14;;;;;;;;;;;14.00;99.90;;;;;;1909780;75;21118;-76
2022/05/06 02:33:41;;;;;;;2.00;1.50;;;14.00;99.90;;;;;;1899110;75;21522;-77
2022/05/06 02:37:08;;;;;;;1.85;1.42;;;14.00;99.90;;;;;;1907698;75;21573;-76
2022/05/06 02:40:01;;;;;;;3.10;1.65;;;14.00;99.90;;;;;;1917720;75;21125;-78
2022/05/06 02:45:51;;;;;;;2.50;1.98;;;14.00;99.90;;;;;;1949273;72;22280;-77
2022/05/06 02:49:01;;;;;;;2.85;1.72;;;14.00;99.90;;;;;;1899676;75;21192;-76
2022/05/06 02:52:11;;;;;;;4.28;1.50;;;14.00;99.90;;;;;;1891131;75;21087;-76
2022/05/06 02:55:03;;;;;;;2.42;2.10;;;14.00;99.90;;;;;;1906667;75;21056;-77
2022/05/06 02:58:13;;;;;;;2.25;2.05;;;13.90;99.90;;;;;;1907170;75;21059;-78
2022/05/06 03:01:06;;;;;;;2.00;1.80;;;13.80;99.90;;;;;;1900588;75;21569;-76
2022/05/06 03:03:59;;;;;;;3.92;1.90;;;13.80;99.90;;;;;;1894824;75;21095;-76
2022/05/06 03:06:52;;;;;;;3.22;2.20;;;13.80;99.90;;;;;;1906978;75;21179;-76
2022/05/06 03:09:57;;;;;;;3.00;2.52;;;13.70;99.90;;;;;;1907013;75;21185;-76
2022/05/06 03:12:55;;;;;;;4.70;2.42;;;13.70;99.90;;;;;;1906601;75;21126;-76
2022/05/06 03:15:45;;;;;;;3.30;2.25;;;13.70;99.90;;;;;;1902946;75;21106;-76
2022/05/06 03:18:39;;;;;;;2.45;2.22;;;13.70;99.90;;;;;;1897989;75;21139;-76
2022/05/06 03:21:31;;;;;;;4.00;2.72;;;13.80;99.90;;;;;;1895499;75;21084;-77
2022/05/06 03:24:23;;;;;;;3.00;2.40;;;13.70;99.90;;;;;;1895368;75;21133;-77
2022/05/06 03:30:26;;;;;;;2.37;2.17;;;13.70;99.90;;;;;;1898610;75;21155;-77
2022/05/06 03:36:02;;;;;;;2.77;2.33;;;13.70;99.90;;;;;;1967647;72;22137;-78
2022/05/06 03:39:14;;;;;;;2.98;2.50;;;13.70;99.90;;;;;;1932736;73;21141;-78
2022/05/06 03:42:26;;;;;;;3.27;2.75;;;13.70;99.90;;;;;;1921633;73;21151;-78
2022/05/06 03:45:18;;;;;;;3.77;2.92;;;13.60;99.90;;;;;;1917695;75;21125;-76
2022/05/06 03:48:29;;;;;;;4.65;2.72;;;13.60;99.90;;;;;;1917602;75;21102;-77
2022/05/06 03:51:22;;;;;;;5.20;3.02;;;13.50;99.90;;;;;;1936121;73;21124;-77
2022/05/06 03:54:21;;;;;;;4.20;2.87;;;13.50;99.90;;;;;;1945262;73;21121;-76
2022/05/06 03:57:13;;;;;;;3.55;3.10;;;13.60;99.90;;;;;;1917670;75;21123;-76
2022/05/06 04:00:08;;;;;;;5.20;3.22;;;13.60;99.90;;;;;;1940493;73;21186;-77
2022/05/06 04:03:00;;;;;;;3.25;2.95;;;13.60;99.90;;;;;;1917685;75;21147;-77
2022/05/06 04:05:53;;;;;;;4.45;3.00;;;13.50;99.90;;;;;;1917683;75;21059;-77
2022/05/06 04:08:45;;;;;;;5.37;3.55;;;13.50;99.90;;;;;;1917708;75;21148;-77
2022/05/06 04:11:37;;;;;;;4.62;3.00;;;13.60;99.90;;;;;;1917714;75;21128;-77
2022/05/06 04:14:29;;;;;;;4.30;2.92;;;13.50;99.90;;;;;;1944139;73;21094;-77
2022/05/06 04:17:21;;;;;;;5.87;3.02;;;13.40;99.90;;;;;;1951425;73;21091;-77
2022/05/06 04:23:29;;;;;;;4.65;3.65;;;13.50;99.90;;;;;;1917534;75;21070;-78
2022/05/06 04:26:23;;;;;;;6.58;4.12;;;13.30;99.90;;;;;;1917049;73;21038;-78
2022/05/06 04:29:18;;;;;;;6.15;3.20;;;13.30;99.90;;;;;;1939979;73;21051;-80
2022/05/06 04:32:12;;;;;;;4.78;3.47;;;13.40;99.90;;;;;;1917491;75;21458;-78
2022/05/06 04:37:44;;;;;;;5.15;3.33;;;13.30;99.90;;;;;;1955274;72;22162;-78
2022/05/06 04:40:56;;;;;;;5.92;3.52;;;13.30;99.90;;;;;;1908780;75;21121;-78
2022/05/06 04:44:06;;;;;;;4.62;3.65;;;13.30;99.90;;;;;;1901675;75;21109;-78
2022/05/06 04:46:58;;;;;;;3.75;3.30;;;13.30;99.90;;;;;;1915230;75;21549;-77
2022/05/06 04:50:11;;;;;;;3.77;3.15;;;13.30;99.90;;;;;;1906906;75;21051;-78
2022/05/06 04:55:43;;;;;;;3.80;3.50;;;13.30;99.90;;;;;;1941857;72;22251;-79
2022/05/06 04:58:53;;;;;;;3.90;3.47;;;13.30;99.90;;;;;;1922276;74;21100;-78
2022/05/06 05:02:05;;;;;;;4.08;3.67;;;13.40;99.90;;;;;;1919550;74;21104;-78
2022/05/06 05:04:58;;;;;;;5.92;4.00;;;13.40;99.90;;;;;;1911612;74;21084;-78
2022/05/06 05:08:10;;;;;;;6.08;3.77;;;13.30;99.90;;;;;;1921227;74;21183;-79
2022/05/06 05:11:03;;;;;;;4.35;3.95;;;13.30;99.90;;;;;;1923445;74;21109;-78
2022/05/06 05:14:00;;;;;;;4.67;3.83;;;13.20;99.90;;;;;;1902659;75;21063;-77
2022/05/06 05:16:52;;;;;;;5.25;4.00;;;13.30;99.90;;;;;;1898622;74;21099;-78
2022/05/06 05:19:44;;;;;;;5.00;3.95;;;13.20;99.90;;;;;;1918273;74;21120;-78
2022/05/06 05:22:36;;;;;;;5.05;4.28;;;13.20;99.90;;;;;;1916701;74;21108;-79
2022/05/06 05:25:30;;;;;;;4.65;4.00;;;13.20;99.90;;;;;;1913954;74;21112;-77
2022/05/06 05:28:23;;;;;;;4.33;3.77;;;13.20;99.90;;;;;;1898570;75;21070;-77
2022/05/06 05:31:14;;;;;;;4.70;3.90;;;13.20;99.90;;;;;;1921842;74;21533;-77
2022/05/06 05:34:05;;;;;;;6.22;3.52;;;13.20;99.90;;;;;;1890833;75;21096;-76
2022/05/06 05:37:06;;;;;;;4.90;3.77;;;13.20;99.90;;;;;;1921156;70;21147;31
2022/05/06 05:42:36;;;;;;;4.42;3.98;;;13.20;99.90;;;;;;1946960;72;22289;-77
2022/05/06 05:49:15;;;;;;;4.22;3.83;;;13.30;99.90;;;;;;1895982;75;21102;-78
2022/05/06 05:52:09;;;;;;;5.00;4.20;;;13.30;99.90;;;;;;1912809;75;21622;-77
2022/05/06 05:55:20;;;;;;;5.30;3.65;;;13.30;99.90;;;;;;1912090;75;21085;-77
2022/05/06 05:58:13;;;;;;;4.85;3.98;;;13.30;99.90;;;;;;1905441;75;21052;-76
2022/05/06 06:01:06;;;;;;;6.72;4.33;;;13.20;99.90;;;;;;1899542;75;21311;-77
2022/05/06 06:03:59;;;;;;;5.00;4.20;;;13.20;99.90;;;;;;1898352;75;21125;-77
2022/05/06 06:06:52;;;;;;;5.60;4.20;;;13.20;99.90;;;;;;1894823;75;21599;-77
2022/05/06 06:09:45;;;;;;;5.90;3.80;;;13.20;99.90;;;;;;1890669;75;21571;-77
2022/05/06 06:15:16;;;;;;;7.03;4.60;;;13.10;99.90;;;;;;1955683;72;22190;-76
2022/05/06 06:21:09;;;;;;;5.00;4.50;;;13.00;99.90;;;;;;1946371;72;22241;-78
2022/05/06 06:24:21;;;;;;;7.10;4.60;;;13.00;99.90;;;;;;1907806;75;21112;-78
2022/05/06 06:30:12;;;;;;;5.35;4.40;;;13.00;99.90;;;;;;1958264;72;22212;-77
2022/05/06 06:36:02;;;;;;;5.33;3.92;;;13.00;99.90;;;;;;1945448;72;22252;-76
2022/05/06 06:39:13;;;;;;;5.55;4.62;;;12.90;99.90;;;;;;1909131;75;21188;-77
2022/05/06 06:45:04;;;;;;;5.00;4.50;;;13.00;99.90;;;;;;1976151;72;22745;-78
2022/05/06 06:50:58;;;;;;;4.58;3.90;;;13.00;99.90;;;;;;1962999;72;22157;-78
2022/05/06 06:54:12;;;;;;;7.05;4.80;;;13.00;99.90;;;;;;1930285;73;21105;-76
2022/05/06 06:57:22;;;;;;;5.75;4.83;;;13.10;99.90;;;;;;1917502;75;21043;-77
2022/05/06 07:00:16;;;;;;;5.50;4.65;;;13.10;99.90;;;;;;1949176;73;21070;-77
2022/05/06 07:03:26;;;;;;;5.30;4.62;;;13.10;99.90;;;;;;1944818;73;21098;-77
2022/05/06 07:12:36;;;;;;;6.97;4.55;;;13.10;99.90;;;;;;1917494;75;21127;-77
2022/05/06 07:15:29;;;;;;;5.95;4.40;;;13.10;99.90;;;;;;1917625;75;21090;-77
2022/05/06 07:21:00;;;;;;;5.87;4.00;;;13.10;99.90;;;;;;1950778;72;22256;-76
2022/05/06 07:24:11;;;;;;;6.97;4.58;;;13.10;99.90;;;;;;1918623;73;21115;-77
2022/05/06 07:27:21;;;;;;;4.53;4.12;;;13.10;99.90;;;;;;1928817;73;21192;-77
2022/05/06 07:32:58;;;;;;;4.37;3.92;;;13.30;99.90;;;;;;1941563;72;22166;-76
2022/05/06 07:36:09;;;;;;;4.90;4.40;;;13.30;99.90;;;;;;1941905;73;21107;-77
2022/05/06 07:39:18;;;;;;;5.37;4.15;;;13.30;99.90;;;;;;1917427;75;21101;-76
2022/05/06 07:42:12;;;;;;;5.00;4.08;;;13.30;99.90;;;;;;1917498;75;21048;-76
2022/05/06 07:45:22;;;;;;;4.42;4.03;;;13.30;99.90;;;;;;1940236;73;21083;-76
2022/05/06 07:48:14;;;;;;;5.33;4.37;;;13.30;99.90;;;;;;1917543;75;21066;-77
2022/05/06 07:51:06;;;;;;;4.42;3.92;;;13.30;99.90;;;;;;1917820;73;21163;-76
2022/05/06 07:53:58;;;;;;;6.55;4.22;;;13.40;99.90;;;;;;1921314;74;21047;-77
2022/05/06 07:56:50;;;;;;;4.75;4.25;;;13.40;99.90;;;;;;1923217;74;21116;-76
2022/05/06 08:05:49;;;;;;;5.17;3.90;;;13.40;99.90;;;;;;1917829;75;21574;-78
2022/05/06 08:09:00;;;;;;;5.22;4.17;;;13.30;99.90;;;;;;1924588;73;21039;-77
2022/05/06 08:11:51;;;;;;;5.22;4.35;;;13.40;99.90;;;;;;1917553;75;21094;-77
2022/05/06 08:15:02;;;;;;;4.37;3.83;;;13.40;99.90;;;;;;1940219;73;21050;-77
2022/05/06 08:17:54;;;;;;;5.50;4.37;;;13.40;99.90;;;;;;1919452;73;21231;-77
2022/05/06 08:20:46;;;;;;;5.40;4.20;;;13.50;99.90;;;;;;1917328;75;21208;-77
2022/05/06 08:23:38;;;;;;;4.58;4.17;;;13.40;99.90;;;;;;1933255;73;21050;-77
2022/05/06 08:26:29;;;;;;;6.10;4.70;;;13.40;99.90;;;;;;1935914;73;21237;-77
2022/05/06 08:29:22;;;;;;;4.80;4.10;;;13.30;99.90;;;;;;1939776;73;21143;-77
2022/05/06 08:32:13;;;;;;;4.67;4.25;;;13.30;99.90;;;;;;1917636;75;21579;-77
2022/05/06 08:35:07;;;;;;;4.58;4.17;;;13.30;99.90;;;;;;1917426;75;21120;-77
2022/05/06 08:40:37;;;;;;;4.60;4.20;;;13.40;99.90;;;;;;1941027;72;22350;-75
2022/05/06 08:43:47;;;;;;;4.62;4.10;;;13.40;99.90;;;;;;1888418;75;21502;-77
2022/05/06 08:53:39;;;;;;;4.72;4.22;;;13.60;99.90;;;;;;1906043;75;21109;-76
2022/05/06 08:56:31;;;;;;;4.37;4.00;;;13.60;99.90;;;;;;1905684;75;21203;-77
2022/05/06 08:59:22;;;;;;;5.25;4.75;;;13.70;99.90;;;;;;1901762;75;21059;-76
2022/05/06 09:02:14;;;;;;;4.78;4.28;;;13.60;99.90;;;;;;1905516;75;21058;-77
2022/05/06 09:07:47;;;;;;;6.08;4.65;;;13.60;99.90;;;;;;1975872;72;22137;-76
2022/05/06 09:11:04;;;;;;;5.05;4.45;;;13.60;99.90;;;;;;1938545;73;21063;-76
2022/05/06 09:14:17;;;;;;;4.93;4.53;;;13.60;99.90;;;;;;1939926;73;21541;-77
2022/05/06 09:17:20;;;;;;;5.85;4.40;;;13.50;99.90;;;;;;1934340;73;21192;-77
2022/05/06 09:23:24;;;;;;;5.50;4.90;;;13.60;99.90;;;;;;1931870;72;22160;-78
2022/05/06 09:26:34;;;;;;;5.45;4.65;;;13.50;99.90;;;;;;1914714;75;21120;-77
2022/05/06 09:29:44;;;;;;;10.78;4.50;;;13.50;99.90;;;;;;1897542;74;21137;-77
2022/05/06 09:32:37;;;;;;;5.47;4.70;;;13.20;99.90;;;;;;1918781;74;21552;-76
2022/05/06 09:35:48;;;;;;;5.92;4.92;;;13.30;99.90;;;;;;1911580;75;21152;-77
2022/05/06 09:41:24;;;;;;;5.37;4.75;;;13.30;99.90;;;;;;1955872;72;22110;-76
2022/05/06 09:44:35;;;;;;;6.37;5.35;;;13.30;99.90;;;;;;1909607;75;21121;-78
2022/05/06 09:50:32;;;;;;;6.60;5.40;;;13.30;99.90;;;;;;1937107;72;22659;-78
2022/05/06 09:53:42;;;;;;;5.47;4.92;;;13.20;99.90;;;;;;1911487;74;21092;-76
2022/05/06 09:56:52;;;;;;;5.60;4.70;;;13.30;99.90;;;;;;1894913;75;21536;-78
2022/05/06 10:02:24;;;;;;;7.30;5.05;;;13.20;99.90;;;;;;1976229;72;22544;-78
2022/05/06 10:05:36;;;;;;;5.78;5.17;;;13.20;99.90;;;;;;1919403;73;21083;-77
2022/05/06 10:11:29;;;;;;;5.15;4.65;;;13.30;99.90;;;;;;1948999;72;22331;-78
2022/05/06 10:14:40;;;;;;;5.90;5.17;;;13.30;99.90;;;;;;1926795;73;21150;-77
2022/05/06 10:17:52;;;;;;;5.47;4.85;;;13.30;99.90;;;;;;1950915;73;21196;-77
2022/05/06 10:20:54;;;;;;;6.28;5.20;;;13.30;99.90;;;;;;1917242;73;21064;-77
2022/05/06 10:26:45;;;;;;;5.37;4.87;;;13.30;99.90;;;;;;1951913;72;22924;-78
2022/05/06 10:33:24;;;;;;;5.87;5.25;;;13.30;99.90;;;;;;1941564;73;21058;-77
2022/05/06 10:36:42;;;;;;;6.62;4.97;;;13.40;99.90;;;;;;1935820;73;21105;-77
2022/05/06 10:39:52;;;;;;;5.45;4.95;;;13.40;99.90;;;;;;1941520;73;21071;-78
2022/05/06 10:42:45;;;;;;;5.30;4.80;;;13.40;99.90;;;;;;1936296;73;21039;-77
2022/05/06 10:45:42;;;;;;;5.20;4.70;;;13.40;99.90;;;;;;1934990;73;21038;-77
2022/05/06 10:48:32;;;;;;;5.72;4.87;;;13.50;99.90;;;;;;1935194;73;21163;-77
2022/05/06 10:51:24;;;;;;;5.30;4.80;;;13.50;99.90;;;;;;1958301;73;21046;-77
2022/05/06 10:54:17;;;;;;;5.72;5.05;;;13.60;99.90;;;;;;1939136;73;21158;-78
2022/05/06 10:57:10;;;;;;;5.62;4.83;;;13.60;99.90;;;;;;1935082;73;21050;-77
2022/05/06 11:00:04;;;;;;;5.65;4.85;;;13.70;99.90;;;;;;1931260;73;21084;-77
2022/05/06 11:02:57;;;;;;;5.22;4.72;;;13.70;99.90;;;;;;1924146;74;21140;-77
2022/05/06 11:05:52;;;;;;;5.58;5.05;;;13.70;99.90;;;;;;1941492;73;21046;-76
2022/05/06 11:08:43;;;;;;;6.00;5.40;;;13.70;99.90;;;;;;1936555;73;21184;-76
2022/05/06 11:11:36;;;;;;;6.15;5.12;;;13.80;99.90;;;;;;1935421;73;21170;-77
2022/05/06 11:14:29;;;;;;;4.90;4.40;;;13.80;99.90;;;;;;1935407;73;21066;-77
2022/05/06 11:17:22;;;;;;;6.03;5.30;;;13.80;99.90;;;;;;1938407;73;21112;-76
2022/05/06 11:20:21;;;;;;;5.45;4.95;;;13.80;99.90;;;;;;1939308;73;21524;-76
2022/05/06 11:23:13;;;;;;;;;;;13.70;99.90;;;;;;1938053;73;21203;-76
2022/05/06 11:26:06;;;;;;;5.50;4.62;;;13.70;99.90;;;;;;1935493;73;20460;-76
2022/05/06 11:29:05;;;;;;;8.38;4.90;;;13.80;99.90;;;;;;1860916;76;21193;-78
2022/05/06 11:31:57;;;;;;;5.97;5.22;;;13.70;99.90;;;;;;1928110;74;21141;-77
2022/05/06 11:34:52;;;;;;;6.97;5.15;;;13.80;99.90;;;;;;1928262;74;21044;-77
2022/05/06 11:37:44;;;;;;;5.62;5.03;;;13.80;99.90;;;;;;1925039;74;21035;-77
2022/05/06 11:40:37;;;;;;;7.28;5.50;;;13.90;99.90;;;;;;1921090;74;21196;-77
2022/05/06 11:43:30;;;;;;;7.90;5.12;;;13.90;99.90;;;;;;1913930;75;21186;-77
2022/05/06 11:49:34;;;;;;;6.22;5.00;;;14.00;99.90;;;;;;1931728;74;21090;-78
2022/05/06 11:52:26;;;;;;;6.85;5.47;;;13.90;99.90;;;;;;1914225;74;21109;-78
2022/05/06 11:55:38;;;;;;;5.50;5.00;;;13.90;99.90;;;;;;1936768;74;21175;-77
2022/05/06 11:58:30;;;;;;;6.53;5.45;;;13.90;99.90;;;;;;1917877;74;21582;-77
2022/05/06 12:01:29;;;;;;;6.40;5.10;;;13.90;99.90;;;;;;1925873;74;21607;-79
2022/05/06 12:04:22;;;;;;;5.95;5.30;;;13.90;99.90;;;;;;1932438;74;21139;-77
2022/05/06 12:07:14;;;;;;;6.35;5.45;;;14.00;99.90;;;;;;1927673;74;21047;-77
2022/05/06 12:10:09;;;;;;;6.67;5.30;;;14.10;99.90;;;;;;1916648;74;21089;-76
2022/05/06 12:13:06;;;;;;;7.33;5.30;;;14.10;99.90;;;;;;1913826;74;21053;-77
2022/05/06 12:18:40;;;;;;;6.10;5.50;;;14.10;99.90;;;;;;1961242;72;22237;-76
2022/05/06 12:21:51;;;;;;;5.92;5.33;;;14.10;99.90;;;;;;1917643;75;21117;-77
2022/05/06 12:25:01;;;;;;;7.40;5.62;;;14.10;99.90;;;;;;1931295;73;21070;-77
2022/05/06 12:28:07;;;;;;;6.28;5.25;;;14.10;99.90;;;;;;1920644;73;21148;-77
2022/05/06 12:31:19;;;;;;;6.12;5.15;;;14.20;99.90;;;;;;1917737;75;21141;-76
2022/05/06 12:34:12;;;;;;;7.42;5.03;;;14.10;99.90;;;;;;1917547;75;21070;-76
2022/05/06 12:37:14;;;;;;;5.92;5.20;;;14.30;99.90;;;;;;1939580;73;21067;-76
2022/05/06 12:40:08;;;;;;;5.33;4.83;;;14.30;99.90;;;;;;1932478;73;21103;-76
2022/05/06 12:43:08;;;;;;;8.25;5.60;;;14.30;99.90;;;;;;1928671;74;21570;-76
2022/05/06 12:46:00;;;;;;;7.55;5.35;;;14.30;99.90;;;;;;1917785;75;21338;-77
2022/05/06 12:52:04;;;;;;;5.85;5.28;;;14.50;99.90;;;;;;1916795;75;21174;-76
2022/05/06 12:54:55;;;;;;;5.70;4.70;;;14.50;99.90;;;;;;1917551;75;21038;-77
2022/05/06 12:57:47;;;;;;;6.25;5.30;;;14.50;99.90;;;;;;1917625;75;21478;-76
2022/05/06 13:00:40;;;;;;;5.78;5.17;;;14.60;99.90;;;;;;1917607;75;21059;-78
2022/05/06 13:03:31;;;;;;;6.08;5.47;;;14.60;99.90;;;;;;1917688;75;21130;-76
2022/05/06 13:06:23;;;;;;;5.92;5.17;;;14.50;99.90;;;;;;1917759;75;21063;-76
2022/05/06 13:09:15;;;;;;;6.08;5.35;;;14.60;99.90;;;;;;1935026;73;21121;-77
2022/05/06 13:12:10;;;;;;;6.90;5.33;;;14.60;99.90;;;;;;1929841;73;21223;-76
2022/05/06 13:15:02;;;;;;;7.15;4.90;;;14.60;99.90;;;;;;1920269;73;21064;-77
2022/05/06 13:17:53;;;;;;;5.72;5.10;;;14.70;99.90;;;;;;1913070;75;21104;-76
2022/05/06 13:20:45;;;;;;;6.20;5.33;;;14.80;99.90;;;;;;1917646;75;21194;-77
2022/05/06 13:23:37;;;;;;;6.53;5.53;;;14.70;99.90;;;;;;1905308;75;21058;-77
2022/05/06 13:26:30;;;;;;;7.03;5.25;;;14.80;99.90;;;;;;1940137;73;21177;-77
2022/05/06 13:29:22;;;;;;;6.47;5.42;;;14.90;99.90;;;;;;1917013;75;21059;-77
2022/05/06 13:32:13;;;;;;;5.72;4.95;;;14.90;99.90;;;;;;1904546;75;21098;-77
2022/05/06 13:35:05;;;;;;;6.72;5.45;;;14.90;99.90;;;;;;1916694;75;21117;-77
2022/05/06 13:37:57;;;;;;;6.53;5.25;;;14.90;99.90;;;;;;1916847;73;21208;-77
2022/05/06 13:40:49;;;;;;;5.58;5.03;;;14.80;99.90;;;;;;1916533;73;21168;-77
2022/05/06 13:43:41;;;;;;;6.92;5.65;;;14.90;99.90;;;;;;1916834;73;21058;-76
2022/05/06 13:46:32;;;;;;;6.20;5.53;;;15.00;99.90;;;;;;1904552;75;21117;-76
2022/05/06 13:49:24;;;;;;;6.53;5.40;;;15.10;99.90;;;;;;1930664;73;21118;-77
2022/05/06 13:52:16;;;;;;;6.10;5.50;;;15.10;99.90;;;;;;1907316;74;21208;-76
2022/05/06 13:55:09;;;;;;;5.50;5.00;;;15.10;99.90;;;;;;1904551;75;21079;-76
2022/05/06 14:01:14;;;;;;;5.70;5.03;;;15.10;99.90;;;;;;1916872;75;21170;-76
2022/05/06 14:04:06;;;;;;;4.97;4.47;;;15.20;99.90;;;;;;1919821;74;21159;-76
2022/05/06 14:06:58;;;;;;;7.30;5.25;;;15.20;99.90;;;;;;1940066;73;21181;-77
2022/05/06 14:09:50;;;;;;;5.87;4.70;;;15.30;99.90;;;;;;1926836;74;21079;-77
2022/05/06 14:12:43;;;;;;;5.55;5.03;;;15.30;99.90;;;;;;1916881;75;21070;-78
2022/05/06 14:15:36;;;;;;;5.28;4.78;;;15.30;99.90;;;;;;1916998;75;21133;-77
2022/05/06 14:18:28;;;;;;;4.67;4.17;;;15.40;99.90;;;;;;1909603;74;21074;-77
2022/05/06 14:21:19;;;;;;;6.90;5.20;;;15.50;99.90;;;;;;1910427;74;21133;-76
2022/05/06 14:24:13;;;;;;;6.83;4.60;;;15.70;99.90;;;;;;1910112;74;21150;-76
2022/05/06 14:27:06;;;;;;;3.95;3.52;;;15.70;99.90;;;;;;1912696;74;21060;-76
2022/05/06 14:29:58;;;;;;;4.87;4.37;;;15.80;99.90;;;;;;1912728;74;21098;-76
2022/05/06 14:32:49;;;;;;;4.90;3.65;;;15.90;99.90;;;;;;1912666;74;21098;-76
2022/05/06 14:35:41;;;;;;;8.25;4.25;;;15.90;99.90;;;;;;1932252;74;21087;-76
2022/05/06 14:38:33;;;;;;;4.28;3.60;;;16.00;99.90;;;;;;1917193;74;21031;-77
2022/05/06 14:41:25;;;;;;;4.42;3.85;;;16.10;99.90;;;;;;1913039;74;21047;-77
2022/05/06 14:44:16;;;;;;;5.35;3.70;;;16.20;99.90;;;;;;1912568;74;21114;-76
2022/05/06 14:47:09;;;;;;;5.15;3.92;;;16.10;99.90;;;;;;1913254;74;21612;-76
2022/05/06 14:50:00;;;;;;;4.85;4.20;;;16.10;99.90;;;;;;1914371;74;21058;-76
2022/05/06 14:52:52;;;;;;;4.85;4.33;;;16.10;99.90;;;;;;1918309;74;21613;-77
2022/05/06 14:55:43;;;;;;;4.45;3.80;;;16.10;99.90;;;;;;1926389;74;21556;-76
2022/05/06 14:58:35;;;;;;;4.28;3.58;;;16.20;99.90;;;;;;1910143;74;21216;-76
2022/05/06 15:01:28;;;;;;;7.17;3.95;;;16.20;99.90;;;;;;1910700;74;21586;-77
2022/05/06 15:04:19;;;;;;;4.62;3.95;;;16.30;99.90;;;;;;1914731;74;21047;-77
2022/05/06 15:07:12;;;;;;;4.97;3.62;;;16.20;99.90;;;;;;1911306;74;21132;-77
2022/05/06 15:10:03;;;;;;;4.05;3.65;;;16.30;99.90;;;;;;1910412;74;21105;-76
2022/05/06 15:12:55;;;;;;;5.50;3.65;;;16.20;99.90;;;;;;1910231;74;21067;-77
2022/05/06 15:15:46;;;;;;;4.60;3.77;;;16.20;99.90;;;;;;1912814;74;21059;-76
2022/05/06 15:21:47;;;;;;;5.25;3.15;;;16.30;99.90;;;;;;1902353;75;21613;-77
2022/05/06 15:24:39;;;;;;;3.58;3.22;;;16.20;99.90;;;;;;1918572;74;21054;-77
2022/05/06 15:27:30;;;;;;;3.85;3.45;;;16.20;99.90;;;;;;1919875;74;21098;-77
2022/05/06 15:30:22;;;;;;;4.60;3.42;;;16.30;99.90;;;;;;1912763;74;21055;-77
2022/05/06 15:33:14;;;;;;;3.58;3.17;;;16.10;99.90;;;;;;1902480;75;21121;-76
2022/05/06 15:36:06;;;;;;;3.90;3.45;;;16.10;99.90;;;;;;1924305;74;21134;-76
2022/05/06 15:38:58;;;;;;;3.40;3.10;;;16.20;99.90;;;;;;1924641;74;21056;-77
2022/05/06 15:41:49;;;;;;;4.85;3.30;;;16.20;99.90;;;;;;1902196;75;21095;-77
2022/05/06 15:44:40;;;;;;;3.85;3.45;;;16.20;99.90;;;;;;1913670;74;21110;-77
2022/05/06 15:47:32;;;;;;;3.87;3.25;;;16.20;99.90;;;;;;1902763;74;21102;-76
2022/05/06 15:50:25;;;;;;;4.17;2.95;;;16.20;99.90;;;;;;1902084;74;21148;-76
2022/05/06 15:53:17;;;;;;;4.15;3.00;;;16.20;99.90;;;;;;1918456;74;21055;-76
2022/05/06 15:56:08;;;;;;;3.35;3.05;;;16.20;99.90;;;;;;1902209;75;21056;-77
2022/05/06 15:59:00;;;;;;;2.98;2.75;;;16.20;99.90;;;;;;1913819;74;21051;-76
2022/05/06 16:01:52;;;;;;;8.83;3.75;;;16.30;99.90;;;;;;1911435;74;21105;-77
2022/05/06 16:04:43;;;;;;;4.50;3.42;;;16.40;99.90;;;;;;1910261;74;21150;-76
2022/05/06 16:07:38;;;;;;;3.33;2.90;;;16.20;99.90;;;;;;1913149;74;21117;-76
2022/05/06 16:10:30;;;;;;;3.20;2.37;;;16.20;99.90;;;;;;1912359;74;21076;-77
2022/05/06 16:13:21;;;;;;;3.70;2.67;;;16.30;99.90;;;;;;1904573;74;21149;-76
2022/05/06 16:16:13;;;;;;;2.98;2.60;;;16.30;99.90;;;;;;1918501;74;21149;-77
2022/05/06 16:19:06;;;;;;;3.10;2.77;;;16.40;99.90;;;;;;1916958;74;21694;-78
2022/05/06 16:21:57;;;;;;;3.30;2.77;;;16.40;99.90;;;;;;1917157;74;21141;-77
2022/05/06 16:24:49;;;;;;;3.25;2.30;;;16.40;99.90;;;;;;1903149;74;21061;-77
2022/05/06 16:27:41;;;;;;;3.60;2.25;;;16.40;99.90;;;;;;1906601;74;21129;-77
2022/05/06 16:30:33;;;;;;;2.37;2.17;;;16.40;99.90;;;;;;1914350;74;21117;-77
2022/05/06 16:33:24;;;;;;;3.08;2.33;;;16.50;99.90;;;;;;1914273;74;21217;-77
2022/05/06 16:39:25;;;;;;;2.58;2.10;;;16.60;99.90;;;;;;1912743;74;21102;-77
2022/05/06 16:42:17;;;;;;;2.95;2.37;;;16.60;99.90;;;;;;1911884;74;21204;-77
2022/05/06 16:45:11;;;;;;;2.50;2.30;;;16.60;99.90;;;;;;1911200;74;21793;-77
2022/05/06 16:48:03;;;;;;;2.85;2.30;;;16.60;99.90;;;;;;1914361;74;21055;-77
2022/05/06 16:50:55;;;;;;;2.60;2.37;;;16.60;99.90;;;;;;1918041;74;21110;-77
2022/05/06 16:53:47;;;;;;;3.40;2.20;;;16.70;99.90;;;;;;1901969;74;21103;-76
2022/05/06 16:56:38;;;;;;;2.60;2.40;;;16.80;99.90;;;;;;1903935;74;21056;-77
2022/05/06 16:59:30;;;;;;;2.92;2.30;;;16.90;99.90;;;;;;1935475;74;21068;-77
2022/05/06 17:02:21;;;;;;;2.52;2.00;;;16.90;99.90;;;;;;1912029;74;21133;-77
2022/05/06 17:05:13;;;;;;;2.42;2.22;;;16.90;99.90;;;;;;1910293;74;21154;-76
2022/05/06 17:08:12;;;;;;;3.35;1.85;;;16.90;99.90;;;;;;1910586;74;21483;-76
2022/05/06 17:11:09;;;;;;;3.22;1.80;;;16.90;99.90;;;;;;1910794;74;21065;-77
2022/05/06 17:13:53;;;;;;;2.35;2.10;;;17.00;99.90;;;;;;1919467;74;21121;-79
2022/05/06 17:16:44;;;;;;;3.12;1.95;;;17.00;99.90;;;;;;1904414;74;21067;-77
2022/05/06 17:19:36;;;;;;;2.30;2.10;;;17.00;99.90;;;;;;1907824;74;21180;-78
2022/05/06 17:22:28;;;;;;;2.52;2.25;;;17.00;99.90;;;;;;1930969;73;21169;-77
2022/05/06 17:25:21;;;;;;;3.70;2.33;;;17.00;99.90;;;;;;1900569;75;21133;-77
2022/05/06 17:28:14;;;;;;;3.70;2.10;;;16.90;99.90;;;;;;1922355;73;21056;-76
2022/05/06 17:31:09;;;;;;;2.17;1.98;;;16.90;99.90;;;;;;1939997;73;21106;-76
2022/05/06 17:34:01;;;;;;;3.87;2.10;;;17.00;99.90;;;;;;1931033;73;21096;-77
2022/05/06 17:36:53;;;;;;;2.70;2.30;;;17.00;99.90;;;;;;1932774;73;21113;-77